Time;durP1;ratioP1;P1;durP2;ratioP2;P2;SDS_P1;SDS_P2;PMS_P1;PMS_P2;Temp;Humidity;BMP_temperature;BMP_pressure;BME280_temperature;BME280_humidity;BME280_pressure;Samples;Min_cycle;Max_cycle;Signal;HPM_P1;HPM_P2
2021/12/01 00:00:23;;;;;;;11.70;3.22;;;5.50;99.90;;;;;;2047689;28;20042;-70
2021/12/01 00:01:27;;;;;;;13.73;3.60;;;5.50;99.90;;;;;;2047704;28;20054;-70
2021/12/01 00:02:30;;;;;;;15.48;3.95;;;5.50;99.90;;;;;;2048540;28;20061;-70
2021/12/01 00:03:31;;;;;;;10.52;3.10;;;5.50;99.90;;;;;;2047984;29;20086;-70
2021/12/01 00:04:32;;;;;;;13.43;3.80;;;5.50;99.90;;;;;;2039810;29;20035;-69
2021/12/01 00:05:34;;;;;;;15.27;3.35;;;5.50;99.90;;;;;;2047986;29;20061;-70
2021/12/01 00:06:36;;;;;;;16.10;4.00;;;5.50;99.90;;;;;;2048460;29;20031;-70
2021/12/01 00:07:37;;;;;;;11.73;3.13;;;5.50;99.90;;;;;;2048236;29;20027;-69
2021/12/01 00:08:38;;;;;;;10.60;2.88;;;5.40;99.90;;;;;;2048462;28;20030;-69
2021/12/01 00:09:42;;;;;;;13.63;3.10;;;5.40;99.90;;;;;;2048236;28;20043;-70
2021/12/01 00:10:43;;;;;;;13.80;3.08;;;5.40;99.90;;;;;;2048635;29;20107;-70
2021/12/01 00:11:44;;;;;;;18.58;3.22;;;5.40;99.90;;;;;;2047862;28;20200;-69
2021/12/01 00:12:47;;;;;;;14.77;3.22;;;5.40;99.90;;;;;;2048461;29;20081;-70
2021/12/01 00:13:48;;;;;;;14.20;3.13;;;5.40;99.90;;;;;;2047815;28;20030;-69
2021/12/01 00:14:58;;;;;;;16.15;2.95;;;5.40;99.90;;;;;;2047533;28;20752;-70
2021/12/01 00:16:03;;;;;;;14.05;3.38;;;5.40;99.90;;;;;;2048588;28;20035;-70
2021/12/01 00:17:11;;;;;;;13.30;3.20;;;5.40;99.90;;;;;;2048576;29;20031;-70
2021/12/01 00:18:12;;;;;;;13.90;3.22;;;5.40;99.90;;;;;;2048389;28;20030;-70
2021/12/01 00:19:13;;;;;;;15.57;3.15;;;5.40;99.90;;;;;;2047596;28;20042;-70
2021/12/01 00:20:16;;;;;;;16.13;3.03;;;5.40;99.90;;;;;;2047811;29;20114;-70
2021/12/01 00:21:17;;;;;;;13.90;3.13;;;5.40;99.90;;;;;;2048439;28;20025;-70
2021/12/01 00:22:21;;;;;;;13.50;2.70;;;5.40;99.90;;;;;;2047140;28;20070;-70
2021/12/01 00:23:22;;;;;;;10.40;2.95;;;5.40;99.90;;;;;;2048427;28;20023;-70
2021/12/01 00:24:25;;;;;;;13.50;3.10;;;5.40;99.90;;;;;;2047466;28;20043;-71
2021/12/01 00:25:29;;;;;;;10.07;2.92;;;5.40;99.90;;;;;;2040269;29;20030;-71
2021/12/01 00:26:30;;;;;;;14.68;3.30;;;5.30;99.90;;;;;;2047955;29;20019;-70
2021/12/01 00:27:31;;;;;;;14.25;3.10;;;5.30;99.90;;;;;;2039821;29;20069;-69
2021/12/01 00:28:36;;;;;;;15.13;3.15;;;5.40;99.90;;;;;;2040370;29;20816;-70
2021/12/01 00:29:40;;;;;;;13.05;2.92;;;5.40;99.90;;;;;;2047884;29;20019;-70
2021/12/01 00:30:44;;;;;;;15.05;3.22;;;5.40;99.90;;;;;;2048679;28;20059;-70
2021/12/01 00:31:45;;;;;;;12.93;2.90;;;5.30;99.90;;;;;;2047692;28;20027;-69
2021/12/01 00:32:47;;;;;;;15.82;3.35;;;5.30;99.90;;;;;;2047787;28;20103;-70
2021/12/01 00:33:48;;;;;;;15.32;3.30;;;5.30;99.90;;;;;;2047544;29;20041;-70
2021/12/01 00:34:49;;;;;;;10.57;2.90;;;5.40;99.90;;;;;;2048001;28;20031;-69
2021/12/01 00:35:56;;;;;;;8.15;2.50;;;5.30;99.90;;;;;;2047886;29;20031;-69
2021/12/01 00:36:57;;;;;;;13.10;2.90;;;5.30;99.90;;;;;;2047576;28;20090;-69
2021/12/01 00:37:58;;;;;;;10.48;2.80;;;5.30;99.90;;;;;;2048244;29;20027;-69
2021/12/01 00:38:59;;;;;;;11.93;3.08;;;5.30;99.90;;;;;;2047862;29;20039;-70
2021/12/01 00:40:03;;;;;;;9.77;2.70;;;5.30;99.90;;;;;;2046953;28;20537;-69
2021/12/01 00:41:06;;;;;;;12.02;3.20;;;5.30;99.90;;;;;;2047051;28;20027;-70
2021/12/01 00:42:07;;;;;;;12.05;3.30;;;5.30;99.90;;;;;;2047404;29;20110;-69
2021/12/01 00:43:15;;;;;;;9.63;2.72;;;5.40;99.90;;;;;;2048472;28;20031;-70
2021/12/01 00:44:17;;;;;;;13.05;2.88;;;5.30;99.90;;;;;;2048296;28;20817;-69
2021/12/01 00:45:22;;;;;;;9.10;2.83;;;5.30;99.90;;;;;;2048317;28;20106;-69
2021/12/01 00:46:41;;;;;;;8.32;2.40;;;5.40;99.90;;;;;;2048568;28;20023;-69
2021/12/01 00:47:47;;;;;;;9.32;2.50;;;5.30;99.90;;;;;;2048226;28;20027;-69
2021/12/01 00:48:48;;;;;;;9.45;2.72;;;5.40;99.90;;;;;;2048537;28;20062;-69
2021/12/01 00:49:50;;;;;;;10.43;2.75;;;5.30;99.90;;;;;;2047899;28;20054;-69
2021/12/01 00:50:52;;;;;;;15.20;3.00;;;5.30;99.90;;;;;;2048232;28;20027;-70
2021/12/01 00:51:53;;;;;;;10.18;2.50;;;5.30;99.90;;;;;;2046917;29;20054;-69
2021/12/01 00:52:57;;;;;;;7.93;2.35;;;5.30;99.90;;;;;;2047668;29;20066;-69
2021/12/01 00:53:58;;;;;;;8.52;2.60;;;5.30;99.90;;;;;;2047566;29;20035;-69
2021/12/01 00:54:59;;;;;;;7.47;2.28;;;5.30;99.90;;;;;;2047783;29;20532;-69
2021/12/01 00:55:59;;;;;;;7.80;2.30;;;5.30;99.90;;;;;;2048187;29;20027;-70
2021/12/01 00:57:01;;;;;;;5.35;2.30;;;5.30;99.90;;;;;;2048307;28;20537;-69
2021/12/01 00:58:05;;;;;;;7.28;2.33;;;5.30;99.90;;;;;;2047559;29;20023;-69
2021/12/01 00:59:13;;;;;;;7.30;2.42;;;5.30;99.90;;;;;;2047303;28;20035;-69
2021/12/01 01:00:15;;;;;;;5.45;2.30;;;5.30;99.90;;;;;;2047447;28;20031;-70
2021/12/01 01:01:17;;;;;;;9.43;2.47;;;5.20;99.90;;;;;;2047574;29;20035;-70
2021/12/01 01:02:18;;;;;;;8.00;2.10;;;5.30;99.90;;;;;;2046709;29;20028;-69
2021/12/01 01:03:20;;;;;;;7.68;2.22;;;5.30;99.90;;;;;;2047623;29;20034;-69
2021/12/01 01:04:21;;;;;;;5.47;2.10;;;5.30;99.90;;;;;;2048033;28;20043;-69
2021/12/01 01:05:22;;;;;;;7.22;2.22;;;5.30;99.90;;;;;;2047634;28;20035;-69
2021/12/01 01:06:23;;;;;;;6.43;2.00;;;5.30;99.90;;;;;;2047444;28;20031;-69
2021/12/01 01:07:24;;;;;;;5.82;2.15;;;5.30;99.90;;;;;;2048071;29;20023;-69
2021/12/01 01:08:25;;;;;;;5.88;2.05;;;5.30;99.90;;;;;;2048393;28;20494;-69
2021/12/01 01:09:31;;;;;;;4.97;1.73;;;5.30;99.90;;;;;;2047363;28;20576;-69
2021/12/01 01:10:56;;;;;;;5.85;2.05;;;5.30;99.90;;;;;;2040497;29;20034;-69
2021/12/01 01:16:23;;;;;;;5.30;2.00;;;5.30;99.90;;;;;;2047405;28;20039;-70
2021/12/01 01:17:30;;;;;;;5.07;1.80;;;5.30;99.90;;;;;;2047935;28;20134;-70
2021/12/01 01:18:35;;;;;;;6.82;1.63;;;5.30;99.90;;;;;;2048601;29;20030;-70
2021/12/01 01:19:39;;;;;;;6.50;1.98;;;5.30;99.90;;;;;;2047533;29;20028;-69
2021/12/01 01:20:40;;;;;;;7.22;2.10;;;5.30;99.90;;;;;;2047897;28;20031;-69
2021/12/01 01:21:46;;;;;;;4.50;1.73;;;5.30;99.90;;;;;;2046929;28;20077;-69
2021/12/01 01:22:47;;;;;;;4.60;1.70;;;5.30;99.90;;;;;;2048232;29;20122;-69
2021/12/01 01:23:51;;;;;;;5.53;1.90;;;5.30;99.90;;;;;;2048882;28;20027;-70
2021/12/01 01:24:52;;;;;;;5.18;1.70;;;5.30;99.90;;;;;;2048408;28;20038;-70
2021/12/01 01:25:57;;;;;;;7.28;2.05;;;5.30;99.90;;;;;;2048482;29;20510;-70
2021/12/01 01:27:00;;;;;;;5.97;1.90;;;5.30;99.90;;;;;;2048539;28;20507;-70
2021/12/01 01:28:02;;;;;;;6.80;2.10;;;5.30;99.90;;;;;;2048486;29;20020;-69
2021/12/01 01:29:05;;;;;;;5.55;2.05;;;5.30;99.90;;;;;;2047577;29;20438;-69
2021/12/01 01:30:06;;;;;;;5.57;2.00;;;5.30;99.90;;;;;;2048092;29;20039;-69
2021/12/01 01:31:10;;;;;;;6.47;2.00;;;5.30;99.90;;;;;;2048646;28;20050;-69
2021/12/01 01:32:11;;;;;;;7.18;2.42;;;5.30;99.90;;;;;;2048077;28;20031;-69
2021/12/01 01:33:12;;;;;;;6.75;2.10;;;5.30;99.90;;;;;;2048932;28;20050;-69
2021/12/01 01:34:17;;;;;;;5.88;2.13;;;5.30;99.90;;;;;;2048944;28;20024;-69
2021/12/01 01:35:18;;;;;;;10.40;2.40;;;5.30;99.90;;;;;;2048711;28;20038;-69
2021/12/01 01:36:20;;;;;;;6.60;1.95;;;5.30;99.90;;;;;;2047778;29;20569;-69
2021/12/01 01:37:21;;;;;;;4.63;1.85;;;5.20;99.90;;;;;;2047624;29;20509;-69
2021/12/01 01:38:28;;;;;;;10.02;2.08;;;5.30;99.90;;;;;;2047259;28;20039;-69
2021/12/01 01:39:29;;;;;;;6.78;1.90;;;5.20;99.90;;;;;;2047216;29;20075;-69
2021/12/01 01:40:30;;;;;;;9.50;2.30;;;5.20;99.90;;;;;;2048220;28;20031;-69
2021/12/01 01:41:31;;;;;;;6.20;1.90;;;5.20;99.90;;;;;;2047340;28;20414;-69
2021/12/01 01:42:32;;;;;;;8.65;2.40;;;5.30;99.90;;;;;;2047474;29;20047;-68
2021/12/01 01:43:38;;;;;;;11.05;2.40;;;5.20;99.90;;;;;;2047464;29;20074;-69
2021/12/01 01:44:39;;;;;;;8.43;2.33;;;5.30;99.90;;;;;;2047968;28;20062;-69
2021/12/01 01:45:40;;;;;;;10.27;2.38;;;5.20;99.90;;;;;;2048295;28;20391;-69
2021/12/01 01:46:41;;;;;;;8.75;2.47;;;5.30;99.90;;;;;;2048242;28;20063;-69
2021/12/01 01:47:49;;;;;;;7.03;2.20;;;5.30;99.90;;;;;;2047405;29;20047;-70
2021/12/01 01:48:53;;;;;;;9.63;2.47;;;5.30;99.90;;;;;;2047312;29;20034;-70
2021/12/01 01:50:36;;;;;;;5.82;2.20;;;5.30;99.90;;;;;;2047506;29;20058;-69
2021/12/01 01:51:21;;;;;;;8.35;2.30;;;5.30;99.90;;;;;;2042207;29;20518;-69
2021/12/01 01:52:22;;;;;;;6.82;2.20;;;5.30;99.90;;;;;;2046727;29;20062;-69
2021/12/01 01:53:25;;;;;;;8.70;2.20;;;5.30;99.90;;;;;;2047378;29;20482;-69
2021/12/01 01:54:26;;;;;;;9.00;2.22;;;5.30;99.90;;;;;;2040082;29;20035;-69
2021/12/01 01:55:29;;;;;;;5.30;1.75;;;5.30;99.90;;;;;;2048154;29;20731;-69
2021/12/01 01:56:31;;;;;;;8.98;2.30;;;5.30;99.90;;;;;;2048285;29;20106;-71
2021/12/01 01:57:33;;;;;;;8.70;2.30;;;5.30;99.90;;;;;;2048060;29;20610;-69
2021/12/01 01:58:34;;;;;;;8.00;2.00;;;5.30;99.90;;;;;;2049153;28;20024;-72
2021/12/01 01:59:35;;;;;;;7.97;2.10;;;5.30;99.90;;;;;;2040256;29;20106;-70
2021/12/01 02:00:54;;;;;;;8.80;2.05;;;5.30;99.90;;;;;;2041852;29;20111;-70
2021/12/01 02:01:58;;;;;;;9.82;2.28;;;5.30;99.90;;;;;;2049300;28;20102;-70
2021/12/01 02:02:59;;;;;;;11.57;2.60;;;5.30;99.90;;;;;;2049635;28;20134;-69
2021/12/01 02:04:03;;;;;;;11.77;2.38;;;5.30;99.90;;;;;;2049324;28;20027;-69
2021/12/01 02:05:04;;;;;;;12.90;2.53;;;5.30;99.90;;;;;;2049570;28;20042;-69
2021/12/01 02:06:06;;;;;;;9.07;2.30;;;5.30;99.90;;;;;;2049734;28;20067;-69
2021/12/01 02:07:09;;;;;;;9.90;2.63;;;5.30;99.90;;;;;;2049751;28;20027;-70
2021/12/01 02:08:18;;;;;;;7.40;2.22;;;5.30;99.90;;;;;;2049463;28;20035;-68
2021/12/01 02:09:22;;;;;;;10.23;2.23;;;5.30;99.90;;;;;;2040790;29;20047;-69
2021/12/01 02:10:23;;;;;;;11.93;2.55;;;5.30;99.90;;;;;;2041482;29;20752;-69
2021/12/01 02:11:27;;;;;;;10.02;3.70;;;5.30;99.90;;;;;;2049124;28;20122;-68
2021/12/01 02:12:28;;;;;;;7.00;2.33;;;5.30;99.90;;;;;;2048588;28;20031;-69
2021/12/01 02:13:29;;;;;;;7.13;1.85;;;5.30;99.90;;;;;;2048806;29;20111;-69
2021/12/01 02:14:34;;;;;;;9.13;2.20;;;5.30;99.90;;;;;;2049233;28;20482;-69
2021/12/01 02:15:35;;;;;;;9.82;2.33;;;5.30;99.90;;;;;;2049568;28;20034;-69
2021/12/01 02:16:37;;;;;;;8.18;2.42;;;5.30;99.90;;;;;;2049533;28;20029;-69
2021/12/01 02:17:38;;;;;;;9.10;2.17;;;5.30;99.90;;;;;;2048802;28;20023;-69
2021/12/01 02:18:40;;;;;;;7.13;2.08;;;5.30;99.90;;;;;;2049076;29;20035;-69
2021/12/01 02:19:41;;;;;;;8.68;2.17;;;5.30;99.90;;;;;;2048721;29;20102;-69
2021/12/01 02:21:11;;;;;;;8.63;2.20;;;5.30;99.90;;;;;;2041487;29;20032;-69
2021/12/01 02:22:13;;;;;;;8.70;2.10;;;5.30;99.90;;;;;;2048482;29;20027;-69
2021/12/01 02:23:13;;;;;;;11.02;2.40;;;5.30;99.90;;;;;;2049690;28;20027;-69
2021/12/01 02:24:15;;;;;;;9.30;2.33;;;5.30;99.90;;;;;;2049749;28;20356;-69
2021/12/01 02:25:16;;;;;;;8.52;2.15;;;5.30;99.90;;;;;;2049548;28;20440;-69
2021/12/01 02:26:19;;;;;;;8.93;2.45;;;5.30;99.90;;;;;;2049628;28;20023;-69
2021/12/01 02:27:20;;;;;;;11.05;2.50;;;5.20;99.90;;;;;;2049985;28;20033;-69
2021/12/01 02:28:21;;;;;;;7.50;2.00;;;5.30;99.90;;;;;;2049780;29;20524;-69
2021/12/01 02:29:25;;;;;;;13.48;2.60;;;5.30;99.90;;;;;;2049618;29;20031;-69
2021/12/01 02:30:26;;;;;;;8.32;2.20;;;5.20;99.90;;;;;;2049348;29;20087;-69
2021/12/01 02:31:33;;;;;;;10.10;2.20;;;5.20;99.90;;;;;;2048130;29;20187;-69
2021/12/01 02:32:34;;;;;;;9.50;2.13;;;5.20;99.90;;;;;;2049436;28;20078;-69
2021/12/01 02:33:35;;;;;;;11.25;2.10;;;5.20;99.90;;;;;;2049508;28;20030;-69
2021/12/01 02:34:39;;;;;;;10.65;2.47;;;5.20;99.90;;;;;;2049149;28;20406;-69
2021/12/01 02:35:40;;;;;;;11.23;2.20;;;5.20;99.90;;;;;;2049184;28;20062;-69
2021/12/01 02:36:44;;;;;;;15.77;2.45;;;5.20;99.90;;;;;;2048712;28;20031;-69
2021/12/01 02:37:45;;;;;;;11.68;2.40;;;5.20;99.90;;;;;;2048686;28;20038;-69
2021/12/01 02:38:48;;;;;;;8.15;2.20;;;5.20;99.90;;;;;;2040835;29;20110;-69
2021/12/01 02:39:52;;;;;;;11.77;2.40;;;5.20;99.90;;;;;;2040972;29;20039;-69
2021/12/01 02:40:53;;;;;;;9.43;2.30;;;5.20;99.90;;;;;;2048616;29;20023;-69
2021/12/01 02:42:00;;;;;;;14.05;2.15;;;5.20;99.90;;;;;;2048478;28;20493;-69
2021/12/01 02:43:01;;;;;;;8.00;2.00;;;5.20;99.90;;;;;;2040637;29;20031;-69
2021/12/01 02:44:06;;;;;;;8.82;1.90;;;5.20;99.90;;;;;;2040946;29;20032;-69
2021/12/01 02:45:08;;;;;;;9.10;2.22;;;5.20;99.90;;;;;;2049270;28;20121;-69
2021/12/01 02:46:11;;;;;;;8.25;2.00;;;5.20;99.90;;;;;;2049153;28;20041;-69
2021/12/01 02:47:12;;;;;;;7.20;2.05;;;5.20;99.90;;;;;;2048667;29;20106;-69
2021/12/01 02:48:14;;;;;;;11.57;2.50;;;5.20;99.90;;;;;;2048598;29;20492;-69
2021/12/01 02:49:29;;;;;;;7.55;2.10;;;5.20;99.90;;;;;;2048050;28;20130;-69
2021/12/01 02:50:30;;;;;;;11.05;2.33;;;5.30;99.90;;;;;;2042432;29;20066;-69
2021/12/01 02:51:35;;;;;;;9.13;1.95;;;5.30;99.90;;;;;;2047556;29;20033;-69
2021/12/01 02:52:36;;;;;;;10.15;2.40;;;5.30;99.90;;;;;;2048406;28;20031;-68
2021/12/01 02:53:38;;;;;;;10.50;2.30;;;5.20;99.90;;;;;;2048522;29;20023;-69
2021/12/01 02:54:39;;;;;;;9.07;2.15;;;5.20;99.90;;;;;;2048435;29;20020;-68
2021/12/01 02:55:50;;;;;;;10.10;2.30;;;5.20;99.90;;;;;;2040608;29;20031;-68
2021/12/01 02:56:53;;;;;;;6.70;2.05;;;5.20;99.90;;;;;;2041987;29;20028;-69
2021/12/01 02:57:54;;;;;;;4.90;1.85;;;5.20;99.90;;;;;;2048315;29;20039;-68
2021/12/01 02:58:58;;;;;;;9.02;2.08;;;5.20;99.90;;;;;;2048522;29;20023;-69
2021/12/01 02:59:59;;;;;;;9.38;2.10;;;5.20;99.90;;;;;;2048990;28;20034;-68
2021/12/01 03:01:04;;;;;;;7.63;1.88;;;5.20;99.90;;;;;;2048969;28;20447;-68
2021/12/01 03:02:05;;;;;;;8.82;2.13;;;5.20;99.90;;;;;;2048325;28;20097;-69
2021/12/01 03:03:06;;;;;;;11.70;2.28;;;5.20;99.90;;;;;;2049045;28;20055;-69
2021/12/01 03:04:08;;;;;;;9.70;2.00;;;5.20;99.90;;;;;;2049117;28;20035;-69
2021/12/01 03:05:09;;;;;;;8.55;2.42;;;5.20;99.90;;;;;;2049630;28;20028;-68
2021/12/01 03:06:11;;;;;;;8.13;2.10;;;5.20;99.90;;;;;;2049486;28;20033;-69
2021/12/01 03:07:12;;;;;;;10.45;2.30;;;5.20;99.90;;;;;;2049045;29;20028;-68
2021/12/01 03:08:15;;;;;;;7.25;2.30;;;5.20;99.90;;;;;;2048520;28;20661;-69
2021/12/01 03:09:17;;;;;;;10.73;2.50;;;5.20;99.90;;;;;;2048312;29;20170;-68
2021/12/01 03:10:17;;;;;;;9.82;2.30;;;5.10;99.90;;;;;;2048525;29;20043;-69
2021/12/01 03:11:18;;;;;;;8.80;2.55;;;5.20;99.90;;;;;;2048202;28;20027;-69
2021/12/01 03:12:19;;;;;;;9.20;2.40;;;5.10;99.90;;;;;;2047494;28;20058;-69
2021/12/01 03:13:21;;;;;;;10.07;2.60;;;5.10;99.90;;;;;;2048389;29;20027;-69
2021/12/01 03:14:22;;;;;;;11.30;2.33;;;5.10;99.90;;;;;;2049086;28;20027;-69
2021/12/01 03:15:23;;;;;;;13.15;2.80;;;5.10;99.90;;;;;;2049142;28;20055;-68
2021/12/01 03:16:24;;;;;;;9.30;2.33;;;5.10;99.90;;;;;;2048528;29;20458;-69
2021/12/01 03:17:30;;;;;;;10.00;2.60;;;5.10;99.90;;;;;;2048532;29;20059;-68
2021/12/01 03:18:31;;;;;;;11.40;2.58;;;5.10;99.90;;;;;;2049180;28;20025;-69
2021/12/01 03:19:32;;;;;;;8.18;2.40;;;5.10;99.90;;;;;;2048455;29;20130;-69
2021/12/01 03:20:33;;;;;;;6.20;2.30;;;5.10;99.90;;;;;;2048512;29;20031;-69
2021/12/01 03:21:39;;;;;;;8.02;2.13;;;5.10;99.90;;;;;;2048121;28;20034;-69
2021/12/01 03:22:44;;;;;;;10.38;2.65;;;5.10;99.90;;;;;;2048701;28;20023;-68
2021/12/01 03:23:45;;;;;;;8.18;2.63;;;5.10;99.90;;;;;;2048428;29;20364;-69
2021/12/01 03:24:46;;;;;;;9.70;2.65;;;5.00;99.90;;;;;;2048314;29;20134;-69
2021/12/01 03:25:48;;;;;;;9.23;2.95;;;5.10;99.90;;;;;;2048931;28;20035;-69
2021/12/01 03:26:48;;;;;;;10.32;2.70;;;5.00;99.90;;;;;;2048785;28;20070;-68
2021/12/01 03:27:50;;;;;;;8.75;2.75;;;5.00;99.90;;;;;;2048338;29;20046;-68
2021/12/01 03:28:51;;;;;;;6.88;2.40;;;5.00;99.90;;;;;;2048269;29;20027;-69
2021/12/01 03:29:52;;;;;;;10.60;2.92;;;5.00;99.90;;;;;;2048357;29;20035;-69
2021/12/01 03:30:53;;;;;;;10.52;2.97;;;5.00;99.90;;;;;;2048277;29;20487;-69
2021/12/01 03:31:56;;;;;;;9.48;2.97;;;5.00;99.90;;;;;;2048011;28;20039;-69
2021/12/01 03:32:56;;;;;;;11.43;2.88;;;5.00;99.90;;;;;;2048763;28;20093;-69
2021/12/01 03:33:57;;;;;;;9.90;2.50;;;5.00;99.90;;;;;;2048349;29;20027;-69
2021/12/01 03:34:58;;;;;;;7.93;2.75;;;5.00;99.90;;;;;;2040456;29;20067;-69
2021/12/01 03:35:59;;;;;;;7.38;2.70;;;5.00;99.90;;;;;;2048615;29;20035;-69
2021/12/01 03:37:00;;;;;;;8.57;2.75;;;5.00;99.90;;;;;;2053780;28;20031;-69
2021/12/01 03:38:01;;;;;;;7.53;2.63;;;5.00;99.90;;;;;;2056491;28;20019;-70
2021/12/01 03:39:03;;;;;;;7.90;2.80;;;4.90;99.90;;;;;;2055287;28;20463;-69
2021/12/01 03:40:05;;;;;;;8.85;2.90;;;5.00;99.90;;;;;;2049641;29;20491;-69
2021/12/01 03:41:06;;;;;;;6.90;2.70;;;4.90;99.90;;;;;;2048275;28;20427;-69
2021/12/01 03:42:07;;;;;;;8.20;2.60;;;4.90;99.90;;;;;;2047420;29;20035;-70
2021/12/01 03:43:08;;;;;;;8.77;3.10;;;4.90;99.90;;;;;;2048707;28;20041;-69
2021/12/01 03:44:09;;;;;;;5.82;2.70;;;5.00;99.90;;;;;;2048942;28;20058;-70
2021/12/01 03:45:12;;;;;;;10.63;3.05;;;5.00;99.90;;;;;;2053486;28;20070;-70
2021/12/01 03:46:13;;;;;;;7.00;2.75;;;4.90;99.90;;;;;;2055147;28;20067;-70
2021/12/01 03:47:14;;;;;;;7.03;2.95;;;5.00;99.90;;;;;;2056036;28;20038;-71
2021/12/01 03:48:15;;;;;;;11.70;3.20;;;5.00;99.90;;;;;;2057325;28;20082;-70
2021/12/01 03:49:16;;;;;;;8.50;2.95;;;5.00;99.90;;;;;;2050120;28;20023;-70
2021/12/01 03:50:17;;;;;;;5.20;2.80;;;5.00;99.90;;;;;;2050524;28;20061;-70
2021/12/01 03:51:18;;;;;;;8.95;3.08;;;5.00;99.90;;;;;;2050578;28;20034;-70
2021/12/01 03:52:19;;;;;;;8.07;2.78;;;5.00;99.90;;;;;;2049382;29;20024;-70
2021/12/01 03:53:22;;;;;;;7.40;3.00;;;5.00;99.90;;;;;;2050033;29;20513;-72
2021/12/01 03:54:23;;;;;;;7.07;2.70;;;5.00;99.90;;;;;;2050852;28;20031;-72
2021/12/01 03:55:24;;;;;;;9.05;3.10;;;5.00;99.90;;;;;;2050501;28;20091;-72
2021/12/01 03:56:30;;;;;;;7.47;3.00;;;5.00;99.90;;;;;;2042681;29;20140;-72
2021/12/01 03:57:30;;;;;;;6.15;3.30;;;5.00;99.90;;;;;;2041964;29;20051;-72
2021/12/01 03:58:31;;;;;;;6.40;2.97;;;5.00;99.90;;;;;;2050268;29;20479;-72
2021/12/01 03:59:32;;;;;;;7.57;3.50;;;5.00;99.90;;;;;;2050407;28;20023;-73
2021/12/01 04:00:33;;;;;;;6.10;2.85;;;5.00;99.90;;;;;;2049965;29;20521;-72
2021/12/01 04:01:34;;;;;;;6.57;3.42;;;5.00;99.90;;;;;;2049319;29;20099;-72
2021/12/01 04:02:36;;;;;;;7.38;3.85;;;5.00;99.90;;;;;;2049539;28;20531;-72
2021/12/01 04:03:37;;;;;;;8.07;3.50;;;5.00;99.90;;;;;;2048883;29;20031;-72
2021/12/01 04:04:38;;;;;;;7.57;3.67;;;4.90;99.90;;;;;;2048749;29;20023;-72
2021/12/01 04:05:41;;;;;;;6.85;3.60;;;5.00;99.90;;;;;;2049052;28;20024;-72
2021/12/01 04:06:46;;;;;;;7.65;3.60;;;5.00;99.90;;;;;;2049646;28;20073;-72
2021/12/01 04:07:47;;;;;;;6.55;3.70;;;4.90;99.90;;;;;;2049532;28;20082;-73
2021/12/01 04:08:48;;;;;;;6.70;3.40;;;5.00;99.90;;;;;;2049481;28;20043;-71
2021/12/01 04:09:54;;;;;;;7.95;3.85;;;5.00;99.90;;;;;;2049125;28;20050;-72
2021/12/01 04:11:03;;;;;;;6.93;3.70;;;5.00;99.90;;;;;;2048431;28;20035;-72
2021/12/01 04:12:07;;;;;;;6.45;3.30;;;5.00;99.90;;;;;;2051619;29;20411;-72
2021/12/01 04:13:10;;;;;;;7.28;3.92;;;5.00;99.90;;;;;;2056521;29;20024;-73
2021/12/01 04:14:11;;;;;;;6.30;3.53;;;5.00;99.90;;;;;;2056832;29;20046;-72
2021/12/01 04:15:16;;;;;;;7.40;3.22;;;5.00;99.90;;;;;;2052365;28;20555;-72
2021/12/01 04:16:27;;;;;;;7.05;3.63;;;5.00;99.90;;;;;;2049116;28;20395;-72
2021/12/01 04:17:29;;;;;;;5.32;3.22;;;5.00;99.90;;;;;;2040385;29;20032;-72
2021/12/01 04:18:29;;;;;;;6.47;3.40;;;5.00;99.90;;;;;;2032602;29;20028;-72
2021/12/01 04:19:31;;;;;;;4.18;3.03;;;5.00;99.90;;;;;;2048398;29;20023;-71
2021/12/01 04:20:32;;;;;;;6.18;3.50;;;5.00;99.90;;;;;;2048219;29;20023;-71
2021/12/01 04:21:35;;;;;;;6.60;3.58;;;5.00;99.90;;;;;;2047477;29;20035;-71
2021/12/01 04:22:36;;;;;;;6.78;3.30;;;5.00;99.90;;;;;;2047609;28;20154;-71
2021/12/01 04:23:40;;;;;;;4.97;3.15;;;5.00;99.90;;;;;;2040247;29;20450;-71
2021/12/01 04:24:41;;;;;;;5.38;3.17;;;5.00;99.90;;;;;;2040899;29;20032;-71
2021/12/01 04:25:43;;;;;;;6.28;3.60;;;5.00;99.90;;;;;;2048187;29;20031;-71
2021/12/01 04:26:47;;;;;;;6.43;3.80;;;5.00;99.90;;;;;;2048650;28;20157;-71
2021/12/01 04:27:48;;;;;;;5.57;3.35;;;5.00;99.90;;;;;;2048766;29;20035;-71
2021/12/01 04:28:53;;;;;;;8.60;4.32;;;5.00;99.90;;;;;;2048486;28;20499;-70
2021/12/01 04:29:54;;;;;;;6.30;3.80;;;5.00;99.90;;;;;;2048808;29;20134;-70
2021/12/01 04:30:55;;;;;;;6.15;3.50;;;5.00;99.90;;;;;;2048601;28;20431;-70
2021/12/01 04:31:56;;;;;;;7.50;3.85;;;5.00;99.90;;;;;;2048442;28;20031;-70
2021/12/01 04:32:57;;;;;;;7.25;3.80;;;5.00;99.90;;;;;;2048916;28;20114;-71
2021/12/01 04:34:01;;;;;;;5.22;3.72;;;5.00;99.90;;;;;;2048949;28;20058;-71
2021/12/01 04:35:08;;;;;;;7.25;4.28;;;5.00;99.90;;;;;;2040443;29;20442;-71
2021/12/01 04:36:09;;;;;;;7.90;3.70;;;5.00;99.90;;;;;;2040952;29;20039;-73
2021/12/01 04:37:14;;;;;;;7.68;4.10;;;5.00;99.90;;;;;;2048629;29;20439;-71
2021/12/01 04:38:25;;;;;;;8.07;3.92;;;5.00;99.90;;;;;;2048769;29;20031;-71
2021/12/01 04:39:39;;;;;;;8.93;3.97;;;5.00;99.90;;;;;;2049255;28;20070;-71
2021/12/01 04:40:43;;;;;;;7.40;4.32;;;5.00;99.90;;;;;;2048674;29;20027;-71
2021/12/01 04:43:06;;;;;;;6.72;4.00;;;5.00;99.90;;;;;;2044795;29;20039;-71
2021/12/01 04:44:18;;;;;;;6.28;3.90;;;5.00;99.90;;;;;;2048478;28;20106;-71
2021/12/01 04:45:36;;;;;;;6.63;3.78;;;5.00;99.90;;;;;;2048671;29;20390;-70
2021/12/01 04:46:44;;;;;;;6.05;4.13;;;5.00;99.90;;;;;;2048330;28;20031;-71
2021/12/01 04:47:49;;;;;;;6.13;4.05;;;5.00;99.90;;;;;;2048248;29;20027;-70
2021/12/01 04:48:50;;;;;;;7.60;4.20;;;5.00;99.90;;;;;;2048266;28;20577;-70
2021/12/01 04:49:51;;;;;;;11.25;4.80;;;5.00;99.90;;;;;;2048423;29;20031;-72
2021/12/01 04:50:52;;;;;;;8.30;3.90;;;5.00;99.90;;;;;;2048561;28;20402;-72
2021/12/01 04:51:58;;;;;;;6.90;4.13;;;5.00;99.90;;;;;;2047123;28;20035;-72
2021/12/01 04:52:59;;;;;;;5.70;3.83;;;5.00;99.90;;;;;;2040825;29;20027;-72
2021/12/01 04:54:02;;;;;;;7.63;4.22;;;5.00;99.90;;;;;;2040123;29;20107;-70
2021/12/01 04:55:04;;;;;;;7.45;3.80;;;5.00;99.90;;;;;;2048142;29;20035;-70
2021/12/01 04:56:06;;;;;;;5.53;3.70;;;5.00;99.90;;;;;;2048871;28;20027;-71
2021/12/01 04:57:07;;;;;;;7.25;4.22;;;5.00;99.90;;;;;;2048211;29;20035;-71
2021/12/01 04:58:08;;;;;;;6.55;4.00;;;5.00;99.90;;;;;;2032092;29;20515;-71
2021/12/01 04:59:09;;;;;;;5.90;3.88;;;5.00;99.90;;;;;;2032223;29;20035;-70
2021/12/01 05:00:14;;;;;;;6.30;3.78;;;5.00;99.90;;;;;;2047958;29;20054;-71
2021/12/01 05:01:18;;;;;;;6.88;3.90;;;5.00;99.90;;;;;;2048866;28;20655;-71
2021/12/01 05:02:19;;;;;;;8.10;4.13;;;5.00;99.90;;;;;;2047372;28;20202;-71
2021/12/01 05:03:20;;;;;;;7.00;4.00;;;5.00;99.90;;;;;;2048415;29;20023;-71
2021/12/01 05:04:22;;;;;;;7.97;4.30;;;5.00;99.90;;;;;;2048176;28;20050;-71
2021/12/01 05:05:23;;;;;;;9.57;4.90;;;5.00;99.90;;;;;;2040431;28;20034;-71
2021/12/01 05:06:26;;;;;;;8.77;4.25;;;5.00;99.90;;;;;;2039914;29;20415;-71
2021/12/01 05:07:27;;;;;;;9.57;4.03;;;5.00;99.90;;;;;;2032558;29;20103;-70
2021/12/01 05:08:28;;;;;;;7.50;3.90;;;5.00;99.90;;;;;;2039720;29;20031;-72
2021/12/01 05:09:29;;;;;;;7.22;3.80;;;5.00;99.90;;;;;;2047750;29;20038;-71
2021/12/01 05:10:30;;;;;;;6.57;3.85;;;5.00;99.90;;;;;;2047842;28;20029;-71
2021/12/01 05:11:31;;;;;;;7.78;4.10;;;5.00;99.90;;;;;;2046869;29;20483;-70
2021/12/01 05:12:34;;;;;;;8.48;4.40;;;5.00;99.90;;;;;;2048276;28;20023;-71
2021/12/01 05:13:34;;;;;;;8.02;3.88;;;5.10;99.90;;;;;;2047594;28;20070;-71
2021/12/01 05:14:36;;;;;;;6.53;4.20;;;5.00;99.90;;;;;;2047660;29;20098;-71
2021/12/01 05:15:38;;;;;;;5.93;3.90;;;5.00;99.90;;;;;;2048110;28;20117;-71
2021/12/01 05:16:41;;;;;;;6.75;4.20;;;5.00;99.90;;;;;;2048143;28;20019;-71
2021/12/01 05:17:42;;;;;;;7.97;4.30;;;5.00;99.90;;;;;;2048215;28;20106;-70
2021/12/01 05:18:43;;;;;;;5.90;4.00;;;5.00;99.90;;;;;;2047427;28;20031;-70
2021/12/01 05:19:48;;;;;;;8.40;5.07;;;5.00;99.90;;;;;;2047697;29;20769;-70
2021/12/01 05:20:51;;;;;;;7.88;4.93;;;5.00;99.90;;;;;;2047722;29;20395;-71
2021/12/01 05:21:52;;;;;;;8.05;5.40;;;5.00;99.90;;;;;;2046859;29;20552;-71
2021/12/01 05:22:53;;;;;;;9.02;5.20;;;5.00;99.90;;;;;;2047477;28;20047;-71
2021/12/01 05:23:54;;;;;;;10.43;5.43;;;5.00;99.90;;;;;;2031600;29;20108;-71
2021/12/01 05:24:55;;;;;;;9.65;5.28;;;5.00;99.90;;;;;;2039836;29;20028;-71
2021/12/01 05:25:56;;;;;;;9.00;5.20;;;5.00;99.90;;;;;;2047655;29;20063;-71
2021/12/01 05:26:57;;;;;;;9.82;5.20;;;5.00;99.90;;;;;;2047607;29;20035;-71
2021/12/01 05:27:58;;;;;;;8.65;5.30;;;5.00;99.90;;;;;;2048247;28;20367;-71
2021/12/01 05:28:59;;;;;;;9.30;6.00;;;5.00;99.90;;;;;;2048146;28;20036;-71
2021/12/01 05:30:00;;;;;;;11.57;6.03;;;5.00;99.90;;;;;;2048008;28;20546;-70
2021/12/01 05:31:01;;;;;;;10.00;6.30;;;5.00;99.90;;;;;;2048175;28;20031;-71
2021/12/01 05:32:02;;;;;;;9.55;6.70;;;5.00;99.90;;;;;;2047593;28;20027;-71
2021/12/01 05:33:08;;;;;;;11.25;6.63;;;5.00;99.90;;;;;;2047565;29;20051;-71
2021/12/01 05:34:09;;;;;;;9.73;6.07;;;5.00;99.90;;;;;;2047973;28;20094;-71
2021/12/01 05:35:09;;;;;;;10.75;5.80;;;5.00;99.90;;;;;;2049733;28;20032;-71